Terminal Aerodrome Forecast
Issued by NWS Wilmington, OH

Current Version | Previous Version | Graphics & Text | Print | Product List | Glossary On
Versions: 1 2 3 4 5 6 7 8 9 10 11 12 13 14 15 16 17 18 19 20 21 22 23 24
310
FTUS41 KILN 210418 AAB
TAFCVG
TAF AMD
KCVG 210418Z 2104/2206 01005KT 6SM BR VCSH OVC025
     FM210600 03002KT 4SM BR OVC014
     FM211100 01005KT P6SM OVC025
     FM211400 01006KT P6SM BKN035
     FM211500 36009KT P6SM BKN150
     FM220500 35009KT P6SM BKN250=

USA.gov is the U.S. government's official web portal to all federal, state and local government web resources and services.